createdAt,value
2023-01-25T00:01:54.752Z,2.90
2023-01-25T00:04:23.728Z,2.97
2023-01-25T00:06:52.075Z,3.42
2023-01-25T00:09:20.573Z,3.53
2023-01-25T00:11:50.252Z,3.33
2023-01-25T00:14:18.460Z,4.93
2023-01-25T00:16:46.913Z,2.63
2023-01-25T00:19:14.946Z,3.05
2023-01-25T00:21:43.222Z,3.58
2023-01-25T00:24:14.858Z,4.18
2023-01-25T00:26:46.682Z,3.30
2023-01-25T00:29:16.592Z,3.63
2023-01-25T00:31:59.161Z,2.60
2023-01-25T00:34:44.625Z,3.08
2023-01-25T00:37:29.279Z,3.85
2023-01-25T00:39:58.584Z,2.65
2023-01-25T00:42:37.343Z,2.65
2023-01-25T00:45:09.130Z,2.22
2023-01-25T00:47:37.532Z,3.35
2023-01-25T00:50:07.099Z,4.05
2023-01-25T00:52:35.255Z,4.30
2023-01-25T00:55:04.025Z,3.67
2023-01-25T00:57:33.512Z,4.63
2023-01-25T01:00:01.529Z,3.88
2023-01-25T01:02:32.028Z,4.40
2023-01-25T01:05:00.953Z,4.28
2023-01-25T01:07:28.976Z,4.25
2023-01-25T01:09:57.115Z,4.82
2023-01-25T01:12:25.886Z,4.20
2023-01-25T01:14:54.063Z,2.97
2023-01-25T01:17:22.142Z,3.58
2023-01-25T01:19:51.755Z,3.03
2023-01-25T01:22:19.674Z,3.58
2023-01-25T01:24:49.733Z,4.55
2023-01-25T01:27:17.841Z,2.90
2023-01-25T01:29:46.176Z,3.90
2023-01-25T01:32:14.424Z,3.63
2023-01-25T01:34:42.697Z,3.75
2023-01-25T01:37:12.285Z,2.80
2023-01-25T01:39:40.567Z,2.45
2023-01-25T01:42:08.546Z,3.17
2023-01-25T01:44:46.364Z,2.85
2023-01-25T01:47:18.821Z,2.92
2023-01-25T01:49:53.528Z,3.70
2023-01-25T01:52:27.735Z,3.38
2023-01-25T01:55:00.410Z,2.63
2023-01-25T01:57:32.816Z,2.50
2023-01-25T02:00:06.177Z,3.85
2023-01-25T02:02:43.525Z,3.00
2023-01-25T02:05:17.865Z,2.67
2023-01-25T02:07:49.377Z,1.60
2023-01-25T02:10:22.481Z,2.42
2023-01-25T02:12:53.465Z,1.23
2023-01-25T02:15:21.576Z,1.70
2023-01-25T02:17:50.570Z,1.58
2023-01-25T02:20:26.479Z,2.78
2023-01-25T02:23:02.081Z,2.15
2023-01-25T02:25:31.871Z,1.35
2023-01-25T02:28:07.649Z,1.70
2023-01-25T02:30:35.909Z,1.30
2023-01-25T02:33:03.945Z,1.13
2023-01-25T02:35:41.263Z,1.35
2023-01-25T02:38:12.361Z,1.10
2023-01-25T02:40:47.904Z,1.85
2023-01-25T02:43:17.327Z,1.17
2023-01-25T02:45:49.877Z,1.65
2023-01-25T02:48:17.943Z,1.42
2023-01-25T02:50:45.783Z,3.10
2023-01-25T02:53:13.723Z,2.10
2023-01-25T02:55:43.151Z,1.77
2023-01-25T02:58:11.170Z,2.75
2023-01-25T03:00:40.933Z,2.60
2023-01-25T03:03:08.847Z,2.15
2023-01-25T03:05:36.687Z,1.45
2023-01-25T03:08:04.921Z,1.40
2023-01-25T03:10:33.070Z,1.00
2023-01-25T03:13:04.968Z,1.50
2023-01-25T03:15:32.937Z,1.10
2023-01-25T03:18:03.453Z,0.75
2023-01-25T03:20:32.116Z,0.22
2023-01-25T03:23:00.120Z,0.40
2023-01-25T03:25:28.595Z,0.30
2023-01-25T03:28:04.387Z,0.40
2023-01-25T03:30:32.631Z,0.20
2023-01-25T03:33:00.507Z,0.40
2023-01-25T03:35:28.863Z,0.20
2023-01-25T03:37:57.066Z,0.57
2023-01-25T03:40:25.029Z,0.20
2023-01-25T03:42:54.048Z,0.20
2023-01-25T03:45:23.542Z,1.05
2023-01-25T03:47:51.571Z,0.15
2023-01-25T03:50:20.245Z,0.30
2023-01-25T03:53:20.206Z,0.30
2023-01-25T03:55:49.699Z,0.30
2023-01-25T03:58:19.282Z,0.52
2023-01-25T04:00:48.916Z,0.80
2023-01-25T04:03:18.099Z,0.20
2023-01-25T04:05:46.510Z,1.08
2023-01-25T04:08:14.922Z,0.70
2023-01-25T04:10:42.899Z,1.30
2023-01-25T04:13:11.042Z,0.20
2023-01-25T04:15:39.026Z,0.70
2023-01-25T04:18:17.158Z,1.05
2023-01-25T04:20:45.184Z,0.20
2023-01-25T04:23:13.876Z,0.30
2023-01-25T04:25:43.863Z,0.35
2023-01-25T04:28:15.904Z,0.60
2023-01-25T04:30:43.874Z,0.75
2023-01-25T04:33:12.196Z,0.57
2023-01-25T04:35:42.427Z,0.28
2023-01-25T04:38:11.203Z,0.75
2023-01-25T04:40:43.530Z,1.75
2023-01-25T04:43:14.295Z,0.38
2023-01-25T04:45:43.476Z,0.40
2023-01-25T04:48:19.424Z,1.10
2023-01-25T04:50:54.252Z,0.90
2023-01-25T04:53:23.843Z,0.68
2023-01-25T04:55:52.916Z,0.73
2023-01-25T04:58:22.110Z,0.85
2023-01-25T05:00:52.945Z,0.20
2023-01-25T05:03:21.495Z,0.40
2023-01-25T05:05:50.217Z,0.30
2023-01-25T05:08:26.423Z,0.88
2023-01-25T05:10:57.623Z,1.13
2023-01-25T05:13:45.857Z,1.20
2023-01-25T05:16:19.472Z,3.30
2023-01-25T05:18:49.475Z,0.93
2023-01-25T05:21:45.094Z,1.05
2023-01-25T05:24:16.483Z,1.15
2023-01-25T05:27:03.315Z,0.70
2023-01-25T05:30:04.554Z,0.70
2023-01-25T05:32:58.846Z,0.70
2023-01-25T05:35:27.025Z,0.80
2023-01-25T05:38:00.195Z,1.13
2023-01-25T05:40:30.625Z,0.70
2023-01-25T05:43:01.395Z,0.52
2023-01-25T05:45:31.314Z,0.90
2023-01-25T05:47:59.951Z,0.43
2023-01-25T05:50:28.581Z,1.38
2023-01-25T05:53:06.725Z,1.70
2023-01-25T05:55:37.826Z,0.88
2023-01-25T05:58:10.551Z,0.47
2023-01-25T06:00:39.952Z,1.08
2023-01-25T06:03:08.344Z,0.85
2023-01-25T06:05:39.474Z,0.98
2023-01-25T06:08:07.594Z,0.70
2023-01-25T06:10:56.716Z,0.50
2023-01-25T06:13:30.122Z,0.85
2023-01-25T06:15:59.435Z,1.00
2023-01-25T06:18:50.158Z,1.65
2023-01-25T06:21:40.801Z,6.78
2023-01-25T06:24:09.650Z,6.65
2023-01-25T06:26:39.315Z,5.35
2023-01-25T06:29:09.048Z,6.30
2023-01-25T06:31:37.209Z,7.45
2023-01-25T06:34:06.765Z,5.45
2023-01-25T06:36:35.104Z,4.10
2023-01-25T06:39:03.665Z,5.03
2023-01-25T06:41:31.920Z,3.40
2023-01-25T06:44:01.525Z,2.35
2023-01-25T06:46:32.177Z,2.70
2023-01-25T06:49:00.300Z,3.50
2023-01-25T06:51:28.361Z,1.17
2023-01-25T06:53:56.388Z,1.98
2023-01-25T06:56:25.129Z,2.13
2023-01-25T06:58:53.046Z,1.48
2023-01-25T07:01:27.328Z,1.35
2023-01-25T07:03:57.040Z,0.80
2023-01-25T07:06:25.463Z,1.30
2023-01-25T07:08:53.583Z,1.02
2023-01-25T07:11:21.575Z,0.82
2023-01-25T07:13:49.774Z,0.82
2023-01-25T07:16:20.016Z,0.98
2023-01-25T07:18:49.879Z,0.90
2023-01-25T07:21:21.455Z,2.50
2023-01-25T07:23:50.510Z,1.58
2023-01-25T07:26:22.083Z,2.50
2023-01-25T07:28:50.582Z,1.30
2023-01-25T07:31:19.473Z,0.52
2023-01-25T07:33:51.173Z,0.88
2023-01-25T07:36:19.717Z,1.50
2023-01-25T07:38:47.843Z,0.90
2023-01-25T07:41:16.679Z,1.17
2023-01-25T07:43:44.659Z,0.90
2023-01-25T07:46:13.877Z,0.82
2023-01-25T07:48:46.127Z,1.23
2023-01-25T07:51:27.211Z,0.95
2023-01-25T07:53:56.729Z,1.08
2023-01-25T07:56:26.494Z,0.45
2023-01-25T07:58:55.661Z,1.67
2023-01-25T08:01:25.102Z,0.82
2023-01-25T08:03:53.344Z,2.25
2023-01-25T08:06:27.807Z,2.25
2023-01-25T08:08:55.981Z,2.67
2023-01-25T08:11:26.047Z,5.00
2023-01-25T08:13:54.908Z,15.07
2023-01-25T08:16:24.773Z,18.17
2023-01-25T08:18:54.469Z,8.00
2023-01-25T08:21:24.555Z,4.28
2023-01-25T08:23:54.069Z,6.65
2023-01-25T08:26:22.102Z,6.63
2023-01-25T08:28:50.149Z,3.08
2023-01-25T08:31:19.840Z,2.38
2023-01-25T08:33:48.465Z,2.13
2023-01-25T08:36:21.354Z,2.38
2023-01-25T08:38:53.272Z,4.85
2023-01-25T08:41:23.239Z,1.75
2023-01-25T08:43:53.772Z,0.65
2023-01-25T08:46:23.952Z,1.27
2023-01-25T08:48:55.329Z,2.05
2023-01-25T08:51:24.697Z,1.95
2023-01-25T08:53:52.577Z,1.33
2023-01-25T08:56:22.297Z,1.25
2023-01-25T08:58:52.624Z,1.00
2023-01-25T09:01:21.078Z,2.80
2023-01-25T09:03:50.611Z,3.67
2023-01-25T09:06:20.495Z,0.73
2023-01-25T09:08:49.181Z,1.92
2023-01-25T09:11:19.019Z,1.27
2023-01-25T09:13:49.297Z,2.10
2023-01-25T09:16:18.855Z,1.23
2023-01-25T09:18:50.516Z,1.40
2023-01-25T09:21:19.339Z,0.73
2023-01-25T09:24:04.577Z,0.90
2023-01-25T09:26:34.367Z,2.55
2023-01-25T09:29:03.833Z,1.38
2023-01-25T09:31:31.856Z,2.35
2023-01-25T09:34:13.300Z,0.80
2023-01-25T09:36:41.034Z,4.55
2023-01-25T09:39:12.468Z,2.15
2023-01-25T09:42:15.463Z,1.65
2023-01-25T09:45:06.297Z,1.02
2023-01-25T09:47:43.491Z,1.15
2023-01-25T09:50:34.050Z,1.58
2023-01-25T09:53:21.856Z,1.15
2023-01-25T09:55:54.327Z,1.73
2023-01-25T09:58:28.501Z,2.25
2023-01-25T10:01:17.791Z,1.73
2023-01-25T10:03:52.614Z,1.40
2023-01-25T10:06:24.016Z,1.55
2023-01-25T10:09:00.299Z,1.35
2023-01-25T10:11:30.879Z,1.60
2023-01-25T10:13:59.313Z,2.13
2023-01-25T10:16:57.222Z,1.17
2023-01-25T10:19:36.021Z,2.08
2023-01-25T10:22:11.912Z,1.45
2023-01-25T10:25:18.501Z,2.78
2023-01-25T10:27:54.952Z,1.88
2023-01-25T10:30:28.114Z,2.33
2023-01-25T10:33:00.904Z,2.35
2023-01-25T10:35:36.687Z,1.58
2023-01-25T10:38:10.302Z,2.55
2023-01-25T10:40:43.322Z,7.00
2023-01-25T10:43:18.336Z,2.45
2023-01-25T10:45:46.768Z,2.38
2023-01-25T10:48:19.683Z,1.25
2023-01-25T10:50:50.084Z,2.60
2023-01-25T10:53:31.213Z,1.77
2023-01-25T10:56:11.586Z,2.65
2023-01-25T10:58:40.914Z,2.70
2023-01-25T11:01:12.693Z,2.83
2023-01-25T11:03:44.980Z,2.65
2023-01-25T11:06:13.308Z,7.70
2023-01-25T11:08:43.388Z,3.05
2023-01-25T11:11:25.696Z,3.17
2023-01-25T11:13:57.603Z,1.83
2023-01-25T11:16:37.842Z,1.80
2023-01-25T11:19:26.879Z,3.13
2023-01-25T11:21:56.071Z,1.98
2023-01-25T11:24:27.671Z,2.83
2023-01-25T11:27:14.715Z,3.10
2023-01-25T11:29:42.580Z,1.58
2023-01-25T11:32:21.961Z,2.92
2023-01-25T11:34:52.396Z,1.92
2023-01-25T11:37:32.980Z,1.95
2023-01-25T11:40:13.462Z,4.05
2023-01-25T11:42:52.601Z,2.55
2023-01-25T11:46:01.941Z,2.67
2023-01-25T11:48:47.328Z,2.58
2023-01-25T11:51:25.219Z,3.83
2023-01-25T11:54:18.482Z,3.20
2023-01-25T11:56:58.537Z,2.92
2023-01-25T11:59:44.146Z,1.77
2023-01-25T12:02:50.706Z,3.22
2023-01-25T12:05:40.242Z,4.13
2023-01-25T12:08:23.263Z,2.33
2023-01-25T12:11:01.112Z,3.60
2023-01-25T12:13:41.421Z,3.08
2023-01-25T12:16:38.351Z,2.42
2023-01-25T12:19:34.915Z,1.92
2023-01-25T12:22:27.443Z,2.20
2023-01-25T12:25:03.667Z,2.00
2023-01-25T12:28:42.899Z,3.22
2023-01-25T12:31:20.194Z,2.05
2023-01-25T12:33:52.763Z,2.72
2023-01-25T12:36:27.503Z,2.75
2023-01-25T12:39:00.147Z,2.67
2023-01-25T12:41:36.417Z,2.00
2023-01-25T12:44:11.585Z,2.72
2023-01-25T12:46:44.488Z,2.42
2023-01-25T12:49:19.474Z,3.10
2023-01-25T12:51:48.820Z,2.90
2023-01-25T12:54:23.100Z,2.45
2023-01-25T12:57:02.593Z,3.38
2023-01-25T12:59:37.936Z,2.83
2023-01-25T13:02:23.028Z,1.88
2023-01-25T13:05:02.752Z,2.40
2023-01-25T13:07:37.126Z,2.55
2023-01-25T13:10:14.984Z,3.45
2023-01-25T13:12:54.459Z,2.25
2023-01-25T13:15:40.423Z,2.05
2023-01-25T13:18:37.339Z,2.13
2023-01-25T13:21:11.782Z,3.17
2023-01-25T13:23:46.195Z,3.88
2023-01-25T13:26:46.255Z,2.78
2023-01-25T13:29:53.739Z,3.25
2023-01-25T13:32:55.971Z,4.00
2023-01-25T13:35:42.241Z,1.30
2023-01-25T13:38:33.735Z,2.50
2023-01-25T13:41:14.793Z,2.88
2023-01-25T13:43:46.451Z,3.03
2023-01-25T13:46:19.885Z,2.72
2023-01-25T13:48:57.864Z,1.42
2023-01-25T13:51:29.611Z,3.83
2023-01-25T13:53:59.102Z,1.67
2023-01-25T13:56:30.099Z,2.03
2023-01-25T13:58:58.842Z,2.78
2023-01-25T14:01:29.703Z,1.67
2023-01-25T14:04:02.688Z,2.20
2023-01-25T14:06:33.434Z,2.25
2023-01-25T14:09:07.901Z,1.98
2023-01-25T14:11:44.184Z,3.75
2023-01-25T14:14:21.596Z,2.63
2023-01-25T14:17:03.060Z,5.47
2023-01-25T14:19:36.500Z,3.58
2023-01-25T14:22:29.151Z,4.25
2023-01-25T14:25:13.052Z,5.38
2023-01-25T14:27:46.921Z,5.20
2023-01-25T14:30:23.606Z,2.83
2023-01-25T14:35:56.450Z,1.60
2023-01-25T14:38:30.132Z,3.00
2023-01-25T14:41:02.659Z,3.28
2023-01-25T14:43:31.942Z,4.55
2023-01-25T14:46:00.218Z,2.80
2023-01-25T14:48:41.576Z,3.00
2023-01-25T14:51:19.032Z,4.55
2023-01-25T14:53:50.227Z,4.28
2023-01-25T14:56:32.397Z,2.92
2023-01-25T14:59:01.493Z,5.13
2023-01-25T15:01:39.133Z,8.23
2023-01-25T15:04:12.782Z,7.68
2023-01-25T15:06:50.659Z,6.90
2023-01-25T15:09:37.401Z,5.10
2023-01-25T15:12:23.031Z,3.85
2023-01-25T15:14:52.834Z,3.67
2023-01-25T15:17:40.264Z,4.00
2023-01-25T15:20:28.199Z,12.63
2023-01-25T15:23:01.466Z,3.30
2023-01-25T15:25:29.906Z,5.43
2023-01-25T15:27:58.047Z,3.58
2023-01-25T15:30:26.528Z,3.13
2023-01-25T15:32:55.199Z,3.92
2023-01-25T15:35:23.833Z,2.60
2023-01-25T15:37:52.195Z,2.58
2023-01-25T15:40:22.061Z,3.70
2023-01-25T15:42:50.333Z,3.38
2023-01-25T15:45:18.803Z,5.03
2023-01-25T15:47:47.030Z,2.85
2023-01-25T15:50:18.982Z,3.78
2023-01-25T15:52:47.803Z,3.45
2023-01-25T15:55:16.493Z,3.90
2023-01-25T15:57:47.402Z,4.53
2023-01-25T16:00:18.330Z,5.28
2023-01-25T16:02:46.563Z,5.05
2023-01-25T16:05:14.742Z,4.28
2023-01-25T16:07:45.151Z,3.40
2023-01-25T16:10:22.478Z,4.30
2023-01-25T16:12:52.253Z,4.78
2023-01-25T16:15:20.707Z,5.85
2023-01-25T16:17:48.876Z,9.13
2023-01-25T16:20:22.189Z,5.78
2023-01-25T16:22:50.392Z,4.00
2023-01-25T16:25:18.584Z,7.47
2023-01-25T16:27:48.813Z,11.23
2023-01-25T16:30:24.146Z,10.07
2023-01-25T16:32:53.759Z,5.88
2023-01-25T16:35:22.087Z,10.73
2023-01-25T16:37:52.442Z,9.25
2023-01-25T16:40:24.547Z,7.75
2023-01-25T16:42:53.467Z,9.13
2023-01-25T16:45:24.528Z,7.65
2023-01-25T16:47:52.887Z,7.03
2023-01-25T16:50:23.421Z,5.60
2023-01-25T16:52:51.915Z,5.07
2023-01-25T16:55:20.333Z,5.18
2023-01-25T16:57:51.617Z,5.50
2023-01-25T17:00:22.213Z,4.97
2023-01-25T17:02:59.210Z,3.25
2023-01-25T17:05:33.904Z,4.75
2023-01-25T17:08:02.203Z,5.28
2023-01-25T17:10:33.364Z,6.95
2023-01-25T17:13:01.696Z,6.60
2023-01-25T17:15:31.604Z,4.82
2023-01-25T17:17:59.548Z,6.30
2023-01-25T17:20:27.550Z,5.45
2023-01-25T17:22:55.398Z,6.93
2023-01-25T17:25:23.493Z,5.18
2023-01-25T17:27:52.435Z,8.68
2023-01-25T17:30:20.663Z,9.05
2023-01-25T17:32:50.088Z,6.18
2023-01-25T17:35:18.609Z,7.57
2023-01-25T17:37:46.812Z,6.78
2023-01-25T17:40:14.982Z,6.68
2023-01-25T17:42:43.512Z,5.97
2023-01-25T17:45:12.307Z,6.00
2023-01-25T17:47:40.355Z,5.78
2023-01-25T17:50:11.424Z,5.85
2023-01-25T17:52:39.658Z,6.35
2023-01-25T17:55:08.601Z,6.82
2023-01-25T17:57:37.533Z,5.78
2023-01-25T18:00:06.724Z,6.95
2023-01-25T18:02:45.359Z,7.30
2023-01-25T18:05:15.991Z,6.18
2023-01-25T18:07:44.997Z,5.28
2023-01-25T18:10:14.082Z,5.50
2023-01-25T18:12:43.773Z,5.93
2023-01-25T18:15:13.167Z,7.30
2023-01-25T18:17:41.132Z,6.68
2023-01-25T18:20:10.899Z,6.78
2023-01-25T18:22:41.879Z,6.00
2023-01-25T18:25:30.871Z,7.90
2023-01-25T18:27:59.091Z,5.15
2023-01-25T18:30:43.390Z,5.63
2023-01-25T18:33:11.463Z,4.80
2023-01-25T18:35:39.572Z,3.47
2023-01-25T18:38:10.530Z,6.20
2023-01-25T18:40:40.409Z,5.43
2023-01-25T18:43:09.792Z,4.40
2023-01-25T18:45:38.030Z,7.35
2023-01-25T18:48:06.868Z,6.20
2023-01-25T18:50:34.750Z,5.75
2023-01-25T18:53:02.779Z,4.97
2023-01-25T18:55:32.288Z,4.93
2023-01-25T18:58:04.323Z,4.95
2023-01-25T19:00:33.012Z,4.45
2023-01-25T19:03:01.342Z,4.30
2023-01-25T19:05:30.217Z,5.47
2023-01-25T19:07:58.429Z,6.57
2023-01-25T19:10:26.642Z,5.30
2023-01-25T19:12:56.062Z,8.18
2023-01-25T19:15:24.482Z,7.18
2023-01-25T19:17:52.510Z,6.50
2023-01-25T19:20:20.673Z,5.75
2023-01-25T19:22:48.603Z,7.15
2023-01-25T19:25:16.712Z,7.13
2023-01-25T19:27:45.109Z,5.25
2023-01-25T19:30:24.047Z,4.85
2023-01-25T19:32:52.517Z,4.68
2023-01-25T19:35:30.067Z,5.35
2023-01-25T19:37:58.382Z,5.80
2023-01-25T19:40:26.676Z,5.30
2023-01-25T19:42:55.279Z,5.20
2023-01-25T19:45:24.730Z,6.18
2023-01-25T19:47:52.518Z,5.78
2023-01-25T19:50:20.482Z,5.97
2023-01-25T19:52:48.301Z,6.65
2023-01-25T19:55:16.277Z,5.55
2023-01-25T19:57:46.250Z,5.88
2023-01-25T20:00:15.510Z,6.95
2023-01-25T20:02:45.326Z,6.95
2023-01-25T20:05:13.193Z,6.50
2023-01-25T20:07:42.403Z,7.13
2023-01-25T20:10:12.536Z,5.57
2023-01-25T20:12:40.365Z,5.90
2023-01-25T20:15:10.029Z,5.90
2023-01-25T20:17:39.067Z,5.47
2023-01-25T20:20:10.827Z,4.72
2023-01-25T20:22:38.920Z,7.13
2023-01-25T20:25:08.462Z,7.72
2023-01-25T20:27:36.697Z,8.52
2023-01-25T20:30:04.924Z,10.23
2023-01-25T20:32:36.201Z,8.90
2023-01-25T20:35:06.275Z,11.73
2023-01-25T20:37:35.617Z,9.93
2023-01-25T20:40:04.431Z,10.25
2023-01-25T20:42:32.166Z,9.88
2023-01-25T20:45:00.025Z,12.05
2023-01-25T20:47:27.775Z,11.07
2023-01-25T20:49:55.542Z,8.93
2023-01-25T20:52:23.342Z,8.65
2023-01-25T20:54:54.142Z,7.45
2023-01-25T20:57:22.084Z,6.90
2023-01-25T20:59:49.892Z,8.55
2023-01-25T21:02:17.770Z,7.97
2023-01-25T21:04:45.451Z,9.95
2023-01-25T21:07:13.277Z,10.10
2023-01-25T21:09:42.898Z,7.15
2023-01-25T21:12:12.653Z,6.50
2023-01-25T21:14:43.717Z,7.25
2023-01-25T21:17:12.022Z,6.32
2023-01-25T21:19:39.931Z,7.13
2023-01-25T21:22:07.738Z,6.28
2023-01-25T21:24:35.730Z,9.00
2023-01-25T21:27:03.544Z,8.02
2023-01-25T21:29:32.618Z,6.22
2023-01-25T21:32:00.559Z,6.57
2023-01-25T21:34:28.207Z,6.40
2023-01-25T21:36:55.850Z,6.30
2023-01-25T21:39:25.110Z,6.10
2023-01-25T21:41:53.132Z,6.65
2023-01-25T21:44:39.326Z,5.18
2023-01-25T21:47:28.724Z,6.73
2023-01-25T21:50:14.535Z,5.35
2023-01-25T21:52:42.127Z,5.88
2023-01-25T21:55:10.709Z,5.53
2023-01-25T21:57:45.804Z,5.65
2023-01-25T22:00:16.162Z,7.20
2023-01-25T22:02:45.814Z,8.13
2023-01-25T22:05:13.658Z,7.97
2023-01-25T22:07:41.376Z,6.47
2023-01-25T22:10:10.693Z,8.13
2023-01-25T22:12:38.599Z,7.47
2023-01-25T22:15:07.424Z,8.32
2023-01-25T22:17:35.231Z,5.95
2023-01-25T22:20:05.063Z,7.40
2023-01-25T22:22:33.011Z,7.20
2023-01-25T22:25:00.645Z,6.22
2023-01-25T22:27:37.124Z,7.10
2023-01-25T22:32:32.907Z,6.72
2023-01-25T22:35:00.976Z,6.53
2023-01-25T22:37:30.108Z,5.88
2023-01-25T22:39:58.749Z,6.40
2023-01-25T22:42:26.358Z,5.93
2023-01-25T22:44:54.085Z,4.57
2023-01-25T22:47:21.746Z,6.07
2023-01-25T22:49:49.513Z,5.38
2023-01-25T22:52:17.220Z,5.55
2023-01-25T22:54:46.558Z,5.25
2023-01-25T22:57:14.366Z,5.15
2023-01-25T22:59:42.083Z,5.15
2023-01-25T23:02:09.883Z,6.13
2023-01-25T23:04:37.891Z,3.80
2023-01-25T23:07:12.982Z,5.88
2023-01-25T23:09:41.471Z,5.88
2023-01-25T23:12:10.778Z,4.22
2023-01-25T23:14:47.481Z,6.47
2023-01-25T23:20:00.931Z,6.18
2023-01-25T23:22:28.483Z,3.03
2023-01-25T23:24:56.505Z,4.57
2023-01-25T23:27:25.600Z,4.57
2023-01-25T23:29:53.277Z,3.50
2023-01-25T23:32:21.060Z,5.63
2023-01-25T23:34:53.349Z,3.35
2023-01-25T23:37:22.403Z,4.85
2023-01-25T23:39:52.764Z,3.58
2023-01-25T23:42:20.577Z,4.95
2023-01-25T23:44:50.113Z,3.83
2023-01-25T23:47:18.743Z,3.92
2023-01-25T23:49:46.849Z,3.72
2023-01-25T23:52:15.021Z,3.78
2023-01-25T23:54:43.059Z,4.32
2023-01-25T23:57:11.240Z,4.70
2023-01-25T23:59:39.400Z,4.47
